Hlavní strana
METAR-TAF:

METAR-TAF

Letiště :

Kuressaare, Estonsko

zeměpisná šířka: 58-13-48N, zeměpisná délka: 022-30-34E, výška: 4 m

Aktuální stav počasí

Zpráva byla vytvořena před 22 minutami, v 12:50 UTC
Jihovýchodní vítr 17 kt
Teplota 5°C
Vlhkost vzduchu 87%
Tlak 1029 hPa
Viditelnost 10 km a více
Zataženo ve výšce 1500 ft

METAR: EEKE 211250Z 14017KT 9999 OVC015 05/03 Q1029

Čas: 15:12 (13:12 UTC)

Předpověď počasí

Zpráva byla vytvořena před 7 hodinami a 12 minutami, v 06:00 UTC
Předpověď platná od 21 v 07 UTC do 21 v 13 UTC
Jihovýchodní vítr 15 kt
Viditelnost 10 km a více
Zataženo ve výšce 800 ft
Pravděpodobnost 40% :
Dočasný
od 21 v 07 UTC do 21 v 13 UTC
Jihojihovýchodní vítr 17 kt s nárazy do 30 kt
Změna
od 21 v 08 UTC do 21 v 10 UTC
Oblačno až skoro zataženo ve výšce 1500 ft

TAF: EEKE 210600Z 2107/2113 14015KT 9999 OVC008 PROB40 TEMPO 2107/2113 16017G30KT BECMG 2108/2110 BKN015

Stav a předpovědi počasí z více než 4 000 letišť (zprávy METAR a TAF).

Červené a žluté tečky na mapě představují dostupné meteorologické stanice.

Když kurzor umístíte na tečku, zobrazí se název stanice.

Pak kliknutím zobrazíte stav a předpověď počasí.

Chcete-li změnit mapu, kliknutím na zelené tlačítko se znaménkem +mapu přiblížíte, kliknutím na zelené tlačítko se znaménkem – mapu oddálíte a kliknutím na zelené šipky přejdete na sousední mapy.


METAR-TAF: